createdAt,value
2023-12-04T00:02:30.791Z,94.11
2023-12-04T00:05:01.678Z,92.22
2023-12-04T00:07:34.379Z,91.97
2023-12-04T00:10:05.605Z,92.92
2023-12-04T00:12:39.354Z,94.15
2023-12-04T00:15:12.005Z,86.90
2023-12-04T00:17:42.932Z,83.44
2023-12-04T00:20:14.294Z,85.42
2023-12-04T00:22:46.626Z,88.16
2023-12-04T00:25:17.435Z,90.00
2023-12-04T00:27:52.689Z,91.57
2023-12-04T00:30:23.587Z,92.44
2023-12-04T00:32:54.700Z,93.00
2023-12-04T00:35:26.037Z,93.30
2023-12-04T00:37:57.033Z,92.97
2023-12-04T00:40:28.167Z,93.01
2023-12-04T00:43:01.589Z,93.44
2023-12-04T00:45:32.386Z,93.91
2023-12-04T00:48:03.434Z,94.21
2023-12-04T00:50:34.792Z,94.07
2023-12-04T00:53:06.187Z,94.08
2023-12-04T00:55:39.924Z,93.44
2023-12-04T00:58:14.321Z,93.26
2023-12-04T01:00:45.481Z,92.39
2023-12-04T01:03:16.250Z,91.65
2023-12-04T01:05:46.994Z,91.50
2023-12-04T01:08:17.949Z,91.11
2023-12-04T01:10:48.939Z,90.51
2023-12-04T01:13:22.606Z,90.00
2023-12-04T01:15:53.409Z,89.02
2023-12-04T01:18:24.396Z,88.69
2023-12-04T01:20:55.285Z,88.36
2023-12-04T01:23:26.249Z,87.94
2023-12-04T01:25:57.085Z,87.61
2023-12-04T01:28:30.872Z,86.82
2023-12-04T01:31:01.779Z,86.67
2023-12-04T01:33:32.738Z,85.71
2023-12-04T01:36:03.586Z,85.51
2023-12-04T01:38:34.726Z,84.63
2023-12-04T01:41:06.008Z,84.48
2023-12-04T01:43:42.451Z,84.00
2023-12-04T01:46:15.133Z,84.34
2023-12-04T01:48:46.488Z,83.99
2023-12-04T01:51:18.373Z,83.67
2023-12-04T01:53:50.003Z,83.54
2023-12-04T01:56:24.635Z,83.49
2023-12-04T01:58:58.145Z,83.58
2023-12-04T02:01:29.192Z,83.90
2023-12-04T02:04:02.884Z,83.37
2023-12-04T02:06:34.137Z,83.39
2023-12-04T02:09:08.292Z,83.45
2023-12-04T02:11:40.504Z,83.55
2023-12-04T02:14:15.110Z,83.50
2023-12-04T02:16:47.613Z,83.74
2023-12-04T02:19:19.422Z,83.70
2023-12-04T02:21:50.349Z,83.88
2023-12-04T02:24:24.098Z,83.92
2023-12-04T02:26:59.191Z,84.04
2023-12-04T02:29:35.848Z,83.66
2023-12-04T02:32:08.594Z,83.91
2023-12-04T02:34:40.765Z,83.76
2023-12-04T02:37:13.030Z,83.71
2023-12-04T02:39:47.023Z,83.71
2023-12-04T02:42:18.587Z,83.76
2023-12-04T02:44:49.918Z,84.05
2023-12-04T02:47:21.102Z,83.86
2023-12-04T02:49:52.040Z,84.05
2023-12-04T02:52:22.831Z,83.87
2023-12-04T02:54:56.622Z,83.90
2023-12-04T02:57:27.396Z,83.70
2023-12-04T02:59:58.299Z,83.55
2023-12-04T03:02:29.486Z,83.25
2023-12-04T03:05:00.266Z,83.27
2023-12-04T03:07:31.161Z,82.78
2023-12-04T03:10:04.995Z,82.77
2023-12-04T03:12:35.949Z,82.77
2023-12-04T03:15:07.449Z,82.67
2023-12-04T03:17:38.517Z,82.78
2023-12-04T03:20:10.202Z,82.87
2023-12-04T03:22:41.499Z,83.20
2023-12-04T03:25:15.663Z,83.08
2023-12-04T03:27:46.510Z,83.14
2023-12-04T03:30:18.317Z,83.22
2023-12-04T03:32:49.151Z,83.25
2023-12-04T03:35:20.316Z,82.84
2023-12-04T03:37:51.358Z,82.83
2023-12-04T03:40:24.845Z,82.29
2023-12-04T03:42:56.333Z,82.80
2023-12-04T03:45:27.330Z,82.58
2023-12-04T03:47:58.203Z,82.95
2023-12-04T03:50:29.019Z,82.92
2023-12-04T03:53:00.135Z,82.92
2023-12-04T03:55:34.162Z,82.84
2023-12-04T03:58:04.970Z,83.02
2023-12-04T04:00:39.641Z,83.04
2023-12-04T04:03:11.093Z,83.05
2023-12-04T04:05:41.897Z,82.54
2023-12-04T04:08:13.021Z,82.48
2023-12-04T04:10:47.109Z,82.35
2023-12-04T04:13:18.019Z,82.63
2023-12-04T04:15:48.995Z,82.43
2023-12-04T04:18:19.900Z,82.49
2023-12-04T04:20:51.169Z,82.78
2023-12-04T04:23:22.142Z,82.99
2023-12-04T04:25:55.679Z,82.53
2023-12-04T04:28:26.648Z,82.57
2023-12-04T04:30:57.348Z,82.15
2023-12-04T04:33:28.329Z,81.93
2023-12-04T04:35:59.737Z,82.15
2023-12-04T04:38:30.903Z,82.04
2023-12-04T04:41:04.601Z,81.89
2023-12-04T04:43:35.650Z,81.59
2023-12-04T04:46:06.694Z,81.77
2023-12-04T04:48:37.696Z,81.58
2023-12-04T04:51:09.276Z,81.21
2023-12-04T04:53:40.081Z,81.61
2023-12-04T04:56:15.127Z,81.33
2023-12-04T04:58:45.909Z,82.01
2023-12-04T05:01:24.007Z,79.99
2023-12-04T05:03:55.908Z,76.10
2023-12-04T05:06:26.925Z,75.16
2023-12-04T05:08:58.369Z,76.68
2023-12-04T05:11:31.767Z,79.29
2023-12-04T05:14:02.658Z,82.19
2023-12-04T05:16:33.656Z,85.43
2023-12-04T05:19:04.820Z,89.90
2023-12-04T05:21:35.714Z,89.37
2023-12-04T05:24:06.573Z,88.55
2023-12-04T05:26:40.252Z,88.68
2023-12-04T05:29:11.290Z,88.97
2023-12-04T05:31:42.033Z,90.15
2023-12-04T05:34:14.050Z,90.61
2023-12-04T05:36:44.865Z,90.52
2023-12-04T05:39:15.842Z,90.28
2023-12-04T05:41:49.450Z,90.13
2023-12-04T05:44:20.232Z,89.51
2023-12-04T05:46:51.166Z,88.62
2023-12-04T05:49:22.164Z,87.98
2023-12-04T05:51:53.275Z,87.13
2023-12-04T05:54:24.136Z,87.28
2023-12-04T05:56:57.604Z,86.75
2023-12-04T05:59:28.378Z,86.04
2023-12-04T06:01:59.219Z,85.51
2023-12-04T06:04:30.217Z,85.32
2023-12-04T06:06:58.490Z,85.15
2023-12-04T06:09:29.540Z,84.92
2023-12-04T06:12:09.726Z,84.70
2023-12-04T06:14:41.039Z,84.76
2023-12-04T06:17:11.830Z,84.40
2023-12-04T06:19:42.842Z,84.54
2023-12-04T06:22:14.384Z,84.03
2023-12-04T06:24:46.268Z,84.03
2023-12-04T06:27:22.768Z,84.21
2023-12-04T06:29:54.225Z,84.04
2023-12-04T06:32:25.864Z,83.78
2023-12-04T06:34:58.202Z,83.80
2023-12-04T06:37:29.710Z,83.59
2023-12-04T06:40:04.612Z,83.03
2023-12-04T06:42:39.325Z,82.32
2023-12-04T06:45:11.732Z,82.19
2023-12-04T06:47:47.522Z,82.40
2023-12-04T06:50:18.318Z,82.37
2023-12-04T06:52:49.182Z,82.27
2023-12-04T06:55:19.964Z,82.20
2023-12-04T06:57:53.999Z,82.27
2023-12-04T07:00:28.115Z,82.50
2023-12-04T07:02:58.907Z,81.81
2023-12-04T07:05:29.692Z,82.24
2023-12-04T07:08:00.478Z,80.66
2023-12-04T07:10:35.311Z,80.23
2023-12-04T07:13:10.716Z,80.18
2023-12-04T07:15:41.672Z,79.86
2023-12-04T07:18:12.619Z,79.13
2023-12-04T07:20:43.644Z,78.24
2023-12-04T07:23:15.063Z,78.47
2023-12-04T07:25:47.771Z,77.55
2023-12-04T07:28:21.694Z,76.39
2023-12-04T07:30:52.641Z,76.01
2023-12-04T07:33:23.617Z,75.60
2023-12-04T07:35:55.424Z,75.15
2023-12-04T07:38:29.327Z,74.39
2023-12-04T07:41:00.228Z,72.07
2023-12-04T07:43:33.854Z,72.27
2023-12-04T07:46:05.143Z,72.57
2023-12-04T07:48:36.468Z,70.87
2023-12-04T07:51:08.701Z,69.87
2023-12-04T07:53:39.568Z,69.65
2023-12-04T07:56:11.524Z,67.78
2023-12-04T07:58:45.016Z,68.06
2023-12-04T08:01:16.310Z,67.13
2023-12-04T08:03:47.687Z,68.15
2023-12-04T08:06:20.512Z,67.69
2023-12-04T08:08:51.352Z,67.68
2023-12-04T08:11:22.375Z,67.20
2023-12-04T08:13:56.203Z,66.72
2023-12-04T08:16:29.273Z,66.94
2023-12-04T08:19:00.560Z,66.44
2023-12-04T08:21:31.441Z,65.31
2023-12-04T08:24:02.946Z,65.40
2023-12-04T08:26:33.785Z,64.76
2023-12-04T08:29:07.445Z,65.08
2023-12-04T08:31:38.159Z,63.79
2023-12-04T08:34:09.193Z,63.16
2023-12-04T08:36:45.501Z,62.57
2023-12-04T08:42:28.438Z,63.06
2023-12-04T08:45:02.641Z,62.15
2023-12-04T08:47:35.383Z,60.02
2023-12-04T08:50:06.659Z,61.64
2023-12-04T08:52:37.529Z,62.80
2023-12-04T08:55:10.649Z,62.60
2023-12-04T08:57:41.573Z,61.75
2023-12-04T09:00:17.060Z,61.68
2023-12-04T09:02:53.545Z,60.56
2023-12-04T09:05:29.743Z,60.63
2023-12-04T09:08:30.372Z,60.93
2023-12-04T09:11:03.853Z,60.26
2023-12-04T09:13:43.334Z,59.96
2023-12-04T09:16:18.139Z,60.09
2023-12-04T09:18:49.326Z,59.31
2023-12-04T09:21:20.151Z,58.89
2023-12-04T09:23:51.472Z,59.23
2023-12-04T09:26:22.666Z,58.14
2023-12-04T09:28:53.531Z,57.71
2023-12-04T09:31:27.702Z,57.92
2023-12-04T09:33:58.642Z,57.01
2023-12-04T09:36:29.523Z,57.36
2023-12-04T09:39:00.361Z,57.87
2023-12-04T09:41:32.053Z,58.19
2023-12-04T09:44:03.172Z,57.22
2023-12-04T09:46:37.948Z,57.38
2023-12-04T09:49:10.018Z,57.28
2023-12-04T09:51:42.633Z,56.28
2023-12-04T09:54:14.220Z,57.42
2023-12-04T09:56:45.233Z,56.09
2023-12-04T09:59:19.198Z,55.90
2023-12-04T10:01:54.576Z,57.00
2023-12-04T10:04:26.130Z,55.73
2023-12-04T10:06:57.346Z,53.43
2023-12-04T10:09:28.302Z,55.61
2023-12-04T10:12:01.277Z,56.00
2023-12-04T10:14:32.365Z,55.82
2023-12-04T10:17:19.631Z,56.09
2023-12-04T10:19:50.492Z,55.56
2023-12-04T10:22:21.302Z,54.35
2023-12-04T10:24:52.132Z,52.63
2023-12-04T10:27:23.264Z,55.24
2023-12-04T10:29:55.613Z,55.54
2023-12-04T10:32:29.137Z,56.55
2023-12-04T10:35:02.105Z,55.55
2023-12-04T10:37:34.855Z,55.37
2023-12-04T10:40:10.107Z,55.09
2023-12-04T10:42:40.957Z,53.55
2023-12-04T10:45:12.967Z,55.04
2023-12-04T10:47:48.805Z,55.09
2023-12-04T10:50:20.146Z,49.78
2023-12-04T10:52:54.139Z,53.07
2023-12-04T10:55:26.164Z,53.52
2023-12-04T10:57:59.405Z,54.83
2023-12-04T11:00:32.713Z,53.93
2023-12-04T11:03:09.623Z,53.11
2023-12-04T11:05:43.569Z,53.61
2023-12-04T11:08:20.995Z,54.20
2023-12-04T11:10:59.235Z,54.12
2023-12-04T11:13:34.143Z,54.31
2023-12-04T11:16:07.102Z,53.54
2023-12-04T11:18:42.546Z,54.06
2023-12-04T11:21:13.819Z,52.92
2023-12-04T11:23:44.616Z,53.77
2023-12-04T11:26:16.853Z,54.26
2023-12-04T11:28:49.619Z,52.85
2023-12-04T11:31:21.852Z,52.30
2023-12-04T11:33:55.405Z,52.46
2023-12-04T11:36:26.656Z,53.00
2023-12-04T11:38:58.243Z,52.99
2023-12-04T11:41:29.759Z,52.67
2023-12-04T11:44:01.503Z,53.18
2023-12-04T11:46:33.753Z,52.81
2023-12-04T11:49:34.521Z,53.30
2023-12-04T11:52:07.419Z,52.57
2023-12-04T11:55:05.794Z,52.41
2023-12-04T11:57:41.283Z,53.67
2023-12-04T12:00:18.624Z,52.71
2023-12-04T12:03:15.566Z,53.27
2023-12-04T12:05:48.279Z,53.07
2023-12-04T12:08:19.461Z,53.20
2023-12-04T12:10:50.376Z,53.29
2023-12-04T12:13:22.324Z,53.40
2023-12-04T12:15:53.385Z,52.16
2023-12-04T12:18:30.070Z,53.34
2023-12-04T12:21:04.071Z,53.52
2023-12-04T12:23:35.222Z,54.21
2023-12-04T12:26:06.389Z,54.35
2023-12-04T12:28:40.535Z,54.00
2023-12-04T12:31:12.129Z,54.26
2023-12-04T12:33:43.188Z,54.48
2023-12-04T12:36:20.740Z,54.70
2023-12-04T12:38:51.709Z,54.89
2023-12-04T12:41:23.370Z,55.14
2023-12-04T12:43:57.507Z,55.12
2023-12-04T12:46:28.356Z,54.73
2023-12-04T12:48:59.328Z,54.86
2023-12-04T12:51:33.861Z,54.94
2023-12-04T12:54:04.741Z,54.28
2023-12-04T12:56:36.561Z,54.64
2023-12-04T12:59:08.303Z,54.54
2023-12-04T13:01:39.346Z,54.65
2023-12-04T13:04:11.999Z,55.30
2023-12-04T13:06:45.891Z,55.00
2023-12-04T13:09:19.382Z,55.43
2023-12-04T13:11:50.813Z,55.47
2023-12-04T13:14:21.610Z,55.74
2023-12-04T13:16:53.176Z,56.17
2023-12-04T13:19:25.159Z,56.26
2023-12-04T13:21:59.703Z,56.64
2023-12-04T13:24:30.450Z,56.80
2023-12-04T13:27:01.319Z,56.62
2023-12-04T13:29:32.054Z,56.54
2023-12-04T13:32:03.663Z,56.58
2023-12-04T13:34:34.813Z,57.03
2023-12-04T13:37:08.898Z,57.09
2023-12-04T13:39:49.498Z,57.15
2023-12-04T13:42:33.392Z,57.64
2023-12-04T13:45:06.099Z,57.91
2023-12-04T13:47:38.412Z,57.83
2023-12-04T13:50:12.371Z,58.30
2023-12-04T13:52:46.391Z,58.34
2023-12-04T13:55:22.058Z,58.82
2023-12-04T13:58:11.245Z,58.81
2023-12-04T14:00:42.081Z,58.89
2023-12-04T14:03:13.211Z,58.91
2023-12-04T14:05:44.406Z,59.24
2023-12-04T14:08:18.259Z,59.62
2023-12-04T14:10:49.628Z,59.53
2023-12-04T14:13:22.000Z,59.79
2023-12-04T14:15:53.133Z,60.22
2023-12-04T14:18:24.971Z,60.07
2023-12-04T14:20:55.749Z,60.34
2023-12-04T14:23:29.724Z,60.49
2023-12-04T14:26:00.631Z,60.70
2023-12-04T14:28:40.059Z,60.87
2023-12-04T14:31:13.938Z,61.42
2023-12-04T14:33:45.342Z,61.52
2023-12-04T14:36:18.059Z,61.89
2023-12-04T14:38:51.513Z,62.25
2023-12-04T14:41:22.669Z,62.43
2023-12-04T14:43:53.531Z,62.57
2023-12-04T14:46:24.970Z,62.74
2023-12-04T14:48:56.210Z,63.00
2023-12-04T14:54:39.039Z,63.42
2023-12-04T14:57:46.038Z,63.91
2023-12-04T15:00:30.158Z,64.02
2023-12-04T15:03:17.679Z,64.48
2023-12-04T15:06:09.670Z,64.71
2023-12-04T15:08:53.014Z,64.93
2023-12-04T15:11:45.079Z,65.32
2023-12-04T15:14:31.600Z,65.19
2023-12-04T15:17:18.481Z,65.85
2023-12-04T15:20:04.425Z,65.72
2023-12-04T15:22:37.053Z,66.11
2023-12-04T15:25:08.355Z,65.90
2023-12-04T15:27:42.699Z,66.54
2023-12-04T15:30:14.087Z,67.19
2023-12-04T15:32:45.694Z,67.70
2023-12-04T15:35:17.688Z,67.28
2023-12-04T15:37:48.518Z,66.56
2023-12-04T15:40:19.717Z,67.02
2023-12-04T15:42:50.786Z,69.36
2023-12-04T15:45:22.355Z,71.50
2023-12-04T15:47:53.973Z,75.04
2023-12-04T15:50:24.134Z,77.96
2023-12-04T15:52:54.933Z,79.24
2023-12-04T15:55:24.638Z,79.94
2023-12-04T15:57:58.902Z,79.58
2023-12-04T16:00:27.914Z,79.58
2023-12-04T16:02:59.041Z,80.07
2023-12-04T16:05:30.245Z,81.26
2023-12-04T16:08:01.738Z,81.53
2023-12-04T16:10:33.089Z,80.61
2023-12-04T16:13:06.748Z,81.28
2023-12-04T16:15:37.717Z,80.72
2023-12-04T16:18:10.456Z,76.46
2023-12-04T16:20:42.526Z,73.57
2023-12-04T16:23:13.768Z,73.77
2023-12-04T16:25:44.731Z,73.38
2023-12-04T16:28:18.672Z,73.47
2023-12-04T16:30:49.928Z,73.97
2023-12-04T16:33:20.905Z,75.42
2023-12-04T16:35:52.105Z,75.49
2023-12-04T16:38:23.548Z,74.61
2023-12-04T16:40:54.465Z,73.84
2023-12-04T16:43:27.992Z,75.85
2023-12-04T16:46:01.143Z,75.39
2023-12-04T16:48:33.414Z,72.72
2023-12-04T16:51:06.858Z,67.92
2023-12-04T16:53:37.701Z,67.77
2023-12-04T16:56:16.516Z,69.85
2023-12-04T16:58:50.803Z,72.37
2023-12-04T17:01:21.835Z,75.25
2023-12-04T17:03:52.913Z,76.62
2023-12-04T17:06:24.121Z,77.54
2023-12-04T17:08:55.314Z,79.70
2023-12-04T17:11:26.679Z,80.94
2023-12-04T17:14:00.368Z,81.82
2023-12-04T17:16:31.540Z,83.08
2023-12-04T17:19:02.740Z,82.98
2023-12-04T17:21:33.759Z,81.29
2023-12-04T17:24:06.085Z,79.93
2023-12-04T17:26:37.229Z,79.30
2023-12-04T17:29:14.323Z,78.96
2023-12-04T17:31:46.860Z,79.68
2023-12-04T17:34:18.157Z,79.33
2023-12-04T17:36:50.026Z,81.37
2023-12-04T17:39:21.435Z,83.31
2023-12-04T17:41:52.554Z,83.47
2023-12-04T17:44:26.460Z,83.09
2023-12-04T17:46:57.788Z,82.77
2023-12-04T17:49:28.902Z,82.31
2023-12-04T17:52:00.272Z,81.69
2023-12-04T17:54:31.553Z,81.11
2023-12-04T17:57:02.988Z,81.05
2023-12-04T17:59:37.413Z,80.18
2023-12-04T18:02:09.159Z,79.64
2023-12-04T18:04:40.946Z,79.18
2023-12-04T18:07:13.395Z,78.77
2023-12-04T18:09:44.830Z,78.33
2023-12-04T18:12:16.209Z,77.96
2023-12-04T18:14:52.134Z,78.84
2023-12-04T18:17:23.332Z,79.97
2023-12-04T18:19:56.282Z,79.42
2023-12-04T18:22:27.345Z,78.05
2023-12-04T18:25:00.526Z,78.46
2023-12-04T18:27:33.067Z,79.37
2023-12-04T18:30:09.487Z,78.72
2023-12-04T18:32:41.778Z,78.14
2023-12-04T18:35:16.220Z,78.68
2023-12-04T18:37:53.944Z,80.91
2023-12-04T18:40:26.978Z,80.82
2023-12-04T18:43:00.687Z,79.57
2023-12-04T18:45:35.345Z,79.46
2023-12-04T18:48:09.519Z,79.61
2023-12-04T18:50:42.497Z,80.57
2023-12-04T18:53:18.343Z,82.26
2023-12-04T18:55:49.356Z,82.66
2023-12-04T18:58:20.263Z,81.11
2023-12-04T19:00:54.211Z,80.82
2023-12-04T19:03:25.737Z,81.46
2023-12-04T19:05:57.803Z,81.96
2023-12-04T19:08:29.378Z,84.52
2023-12-04T19:11:00.632Z,83.98
2023-12-04T19:13:32.609Z,82.65
2023-12-04T19:16:06.976Z,82.06
2023-12-04T19:18:39.573Z,82.63
2023-12-04T19:21:11.275Z,83.55
2023-12-04T19:23:43.081Z,85.40
2023-12-04T19:26:16.414Z,85.17
2023-12-04T19:28:47.380Z,80.25
2023-12-04T19:31:35.892Z,77.60
2023-12-04T19:34:07.539Z,77.42
2023-12-04T19:36:43.155Z,77.03
2023-12-04T19:39:14.337Z,77.61
2023-12-04T19:41:46.471Z,80.49
2023-12-04T19:44:17.624Z,81.85
2023-12-04T19:46:51.169Z,84.02
2023-12-04T19:49:22.167Z,85.78
2023-12-04T19:51:53.475Z,86.73
2023-12-04T19:54:24.578Z,87.26
2023-12-04T19:56:56.353Z,86.45
2023-12-04T19:59:32.737Z,84.82
2023-12-04T20:02:15.377Z,83.64
2023-12-04T20:07:32.797Z,82.96
2023-12-04T20:10:08.648Z,83.99
2023-12-04T20:12:42.881Z,83.91
2023-12-04T20:15:15.669Z,85.71
2023-12-04T20:17:54.442Z,88.20
2023-12-04T20:20:27.180Z,89.35
2023-12-04T20:22:58.756Z,89.41
2023-12-04T20:25:30.652Z,89.47
2023-12-04T20:28:05.311Z,91.04
2023-12-04T20:30:39.416Z,91.63
2023-12-04T20:33:14.963Z,91.17
2023-12-04T20:35:45.608Z,90.07
2023-12-04T20:38:17.341Z,89.00
2023-12-04T20:40:50.331Z,88.27
2023-12-04T20:43:23.844Z,88.14
2023-12-04T20:45:55.032Z,86.95
2023-12-04T20:48:28.942Z,86.37
2023-12-04T20:50:59.958Z,89.07
2023-12-04T20:53:31.862Z,90.57
2023-12-04T20:56:03.208Z,90.30
2023-12-04T20:58:36.318Z,89.10
2023-12-04T21:01:07.675Z,88.92
2023-12-04T21:03:41.225Z,89.14
2023-12-04T21:06:14.416Z,88.11
2023-12-04T21:08:46.521Z,87.70
2023-12-04T21:11:17.586Z,88.94
2023-12-04T21:13:48.658Z,90.82
2023-12-04T21:16:20.060Z,92.03
2023-12-04T21:18:53.691Z,89.87
2023-12-04T21:21:24.936Z,89.14
2023-12-04T21:23:55.839Z,89.26
2023-12-04T21:26:26.703Z,89.40
2023-12-04T21:28:58.674Z,91.95
2023-12-04T21:31:31.300Z,92.49
2023-12-04T21:34:04.910Z,91.85
2023-12-04T21:36:36.441Z,86.83
2023-12-04T21:39:07.743Z,81.93
2023-12-04T21:41:39.428Z,88.51
2023-12-04T21:44:10.570Z,91.96
2023-12-04T21:46:41.607Z,94.35
2023-12-04T21:49:15.586Z,93.96
2023-12-04T21:51:46.546Z,92.80
2023-12-04T21:54:17.714Z,91.71
2023-12-04T21:56:48.600Z,91.22
2023-12-04T21:59:27.133Z,91.04
2023-12-04T22:02:01.444Z,90.45
2023-12-04T22:04:35.140Z,89.76
2023-12-04T22:07:06.433Z,89.86
2023-12-04T22:09:37.593Z,90.50
2023-12-04T22:12:09.578Z,90.81
2023-12-04T22:14:40.494Z,90.57
2023-12-04T22:17:11.341Z,91.49
2023-12-04T22:19:45.777Z,91.34
2023-12-04T22:22:17.149Z,91.43
2023-12-04T22:24:47.961Z,91.30
2023-12-04T22:27:19.040Z,90.98
2023-12-04T22:29:50.027Z,91.47
2023-12-04T22:32:20.742Z,91.07
2023-12-04T22:34:54.487Z,91.25
2023-12-04T22:37:25.471Z,90.68
2023-12-04T22:39:56.945Z,91.44
2023-12-04T22:42:28.604Z,91.58
2023-12-04T22:44:59.414Z,91.67
2023-12-04T22:47:30.333Z,92.14
2023-12-04T22:50:03.897Z,91.51
2023-12-04T22:52:35.288Z,91.78
2023-12-04T22:55:09.162Z,91.67
2023-12-04T22:57:40.267Z,92.33
2023-12-04T23:00:13.435Z,91.88
2023-12-04T23:02:44.307Z,91.90
2023-12-04T23:05:18.074Z,91.66
2023-12-04T23:07:49.951Z,91.78
2023-12-04T23:10:21.954Z,91.56
2023-12-04T23:12:58.053Z,91.18
2023-12-04T23:15:29.267Z,91.87
2023-12-04T23:18:00.076Z,91.32
2023-12-04T23:20:33.875Z,91.81
2023-12-04T23:23:04.836Z,91.48
2023-12-04T23:25:36.148Z,91.78
2023-12-04T23:28:07.429Z,91.98
2023-12-04T23:30:44.374Z,91.81
2023-12-04T23:33:15.364Z,91.75
2023-12-04T23:35:49.104Z,92.41
2023-12-04T23:38:19.917Z,92.35
2023-12-04T23:40:51.234Z,91.92
2023-12-04T23:43:22.034Z,92.22
2023-12-04T23:45:56.298Z,91.27
2023-12-04T23:48:28.212Z,91.51
2023-12-04T23:51:01.743Z,91.62
2023-12-04T23:53:32.585Z,91.72
2023-12-04T23:56:03.367Z,91.83
2023-12-04T23:58:34.520Z,92.32
